Time;durP1;ratioP1;P1;durP2;ratioP2;P2;SDS_P1;SDS_P2;PMS_P1;PMS_P2;Temp;Humidity;BMP_temperature;BMP_pressure;BME280_temperature;BME280_humidity;BME280_pressure;Samples;Min_cycle;Max_cycle;Signal;HPM_P1;HPM_P2
2022/11/07 00:00:29;;;;;;;18.15;8.25;;;;;;;;;;5081695;28;20051;-69
2022/11/07 00:02:56;;;;;;;16.50;8.02;;;;;;;;;;5067040;28;20063;-70
2022/11/07 00:05:23;;;;;;;16.63;7.45;;;;;;;;;;5083536;28;20044;-69
2022/11/07 00:07:50;;;;;;;19.00;7.20;;;;;;;;;;5081911;28;20047;-71
2022/11/07 00:10:18;;;;;;;17.02;7.03;;;;;;;;;;5081817;28;20055;-71
2022/11/07 00:12:45;;;;;;;16.15;7.07;;;;;;;;;;5083362;28;20052;-71
2022/11/07 00:15:14;;;;;;;17.27;6.85;;;;;;;;;;5076726;28;20051;-71
2022/11/07 00:17:41;;;;;;;17.90;6.70;;;;;;;;;;5083444;28;20128;-70
2022/11/07 00:20:08;;;;;;;18.05;7.30;;;;;;;;;;5082683;28;20048;-71
2022/11/07 00:22:36;;;;;;;20.02;7.88;;;;;;;;;;5080178;28;20548;-71
2022/11/07 00:25:03;;;;;;;17.38;7.63;;;;;;;;;;5081574;28;20048;-70
2022/11/07 00:27:30;;;;;;;21.70;8.02;;;;;;;;;;5084246;28;20056;-72
2022/11/07 00:29:57;;;;;;;17.02;7.97;;;;;;;;;;5082380;28;20055;-70
2022/11/07 00:32:26;;;;;;;18.35;7.38;;;;;;;;;;5078381;28;20048;-70
2022/11/07 00:34:53;;;;;;;20.08;7.75;;;;;;;;;;5056610;28;20055;-69
2022/11/07 00:37:20;;;;;;;20.48;8.02;;;;;;;;;;5062931;28;20051;-70
2022/11/07 00:39:48;;;;;;;22.17;8.43;;;;;;;;;;5083944;28;20052;-70
2022/11/07 00:42:15;;;;;;;23.83;8.77;;;;;;;;;;5084453;28;20495;-71
2022/11/07 00:44:42;;;;;;;18.92;8.38;;;;;;;;;;5083209;28;20052;-70
2022/11/07 00:47:09;;;;;;;22.23;8.68;;;;;;;;;;5080828;28;20047;-70
2022/11/07 00:49:38;;;;;;;23.65;8.38;;;;;;;;;;5062527;28;20402;-70
2022/11/07 00:52:05;;;;;;;15.25;6.78;;;;;;;;;;5079704;28;20901;-71
2022/11/07 00:54:32;;;;;;;15.55;5.43;;;;;;;;;;5081778;28;20051;-71
2022/11/07 00:57:00;;;;;;;13.38;4.70;;;;;;;;;;5077673;28;20048;-70
2022/11/07 00:59:28;;;;;;;22.75;5.53;;;;;;;;;;5081717;28;20062;-70
2022/11/07 01:01:55;;;;;;;12.63;4.38;;;;;;;;;;5082238;28;20047;-70
2022/11/07 01:07:09;;;;;;;21.63;4.43;;;;;;;;;;5078884;28;20077;-70
2022/11/07 01:09:36;;;;;;;15.20;4.30;;;;;;;;;;5066084;28;20055;-72
2022/11/07 01:12:03;;;;;;;19.17;4.50;;;;;;;;;;5079134;28;20040;-70
2022/11/07 01:14:30;;;;;;;15.10;4.38;;;;;;;;;;5074859;28;20052;-71
2022/11/07 01:16:58;;;;;;;13.50;5.07;;;;;;;;;;5079379;28;20055;-71
2022/11/07 01:19:25;;;;;;;18.05;6.07;;;;;;;;;;5083169;28;20048;-70
2022/11/07 01:21:52;;;;;;;20.10;5.78;;;;;;;;;;5077899;28;20436;-71
2022/11/07 01:24:21;;;;;;;17.00;5.65;;;;;;;;;;5062258;28;20052;-69
2022/11/07 01:26:48;;;;;;;16.30;5.22;;;;;;;;;;5082954;28;20429;-71
2022/11/07 01:29:16;;;;;;;15.18;5.38;;;;;;;;;;5061755;28;20052;-70
2022/11/07 01:31:43;;;;;;;16.15;5.78;;;;;;;;;;5082606;28;20059;-70
2022/11/07 01:34:10;;;;;;;23.83;6.32;;;;;;;;;;5081841;28;20465;-73
2022/11/07 01:36:38;;;;;;;20.25;6.72;;;;;;;;;;5081661;28;20634;-69
2022/11/07 01:39:06;;;;;;;19.20;6.20;;;;;;;;;;5081390;28;20066;-71
2022/11/07 01:41:35;;;;;;;23.30;6.55;;;;;;;;;;5057102;28;20048;-71
2022/11/07 01:44:04;;;;;;;20.95;6.25;;;;;;;;;;5082434;28;20173;-71
2022/11/07 01:46:32;;;;;;;15.85;6.20;;;;;;;;;;5060270;28;20086;-70
2022/11/07 01:49:03;;;;;;;34.35;7.35;;;;;;;;;;5083027;28;20044;-71
2022/11/07 01:51:32;;;;;;;24.65;6.80;;;;;;;;;;5079056;28;20067;-70
2022/11/07 01:53:59;;;;;;;22.52;6.28;;;;;;;;;;5081724;28;20048;-72
2022/11/07 01:56:28;;;;;;;26.13;6.45;;;;;;;;;;5083610;28;20048;-70
2022/11/07 01:58:57;;;;;;;29.92;6.35;;;;;;;;;;5086691;28;20051;-70
2022/11/07 02:01:24;;;;;;;22.20;5.68;;;;;;;;;;5087693;28;20044;-69
2022/11/07 02:03:52;;;;;;;21.27;5.72;;;;;;;;;;5085482;28;20052;-71
2022/11/07 02:06:22;;;;;;;23.83;6.10;;;;;;;;;;5086774;28;20052;-68
2022/11/07 02:08:50;;;;;;;20.83;5.47;;;;;;;;;;5084680;28;20052;-71
2022/11/07 02:11:18;;;;;;;18.63;5.40;;;;;;;;;;5085093;28;20056;-72
2022/11/07 02:13:45;;;;;;;24.38;5.72;;;;;;;;;;5066348;28;20055;-71
2022/11/07 02:16:13;;;;;;;23.75;6.13;;;;;;;;;;5082997;28;20055;-72
2022/11/07 02:18:42;;;;;;;19.42;5.75;;;;;;;;;;5075292;28;20532;-73
2022/11/07 02:21:14;;;;;;;24.02;5.80;;;;;;;;;;5060169;28;20055;-74
2022/11/07 02:23:46;;;;;;;31.08;5.40;;;;;;;;;;5064069;28;20063;-73
2022/11/07 02:26:14;;;;;;;32.55;5.20;;;;;;;;;;5064583;28;20060;-72
2022/11/07 02:28:42;;;;;;;25.95;5.78;;;;;;;;;;5082953;28;20055;-72
2022/11/07 02:31:09;;;;;;;25.02;5.53;;;;;;;;;;5082495;28;20044;-72
2022/11/07 02:33:37;;;;;;;28.80;5.50;;;;;;;;;;5069067;28;20055;-71
2022/11/07 02:36:04;;;;;;;25.15;4.38;;;;;;;;;;5064682;28;20043;-71
2022/11/07 02:38:33;;;;;;;27.33;5.05;;;;;;;;;;5086778;28;20045;-71
2022/11/07 02:41:02;;;;;;;21.17;5.00;;;;;;;;;;5068628;28;20052;-71
2022/11/07 02:43:32;;;;;;;21.30;4.32;;;;;;;;;;5063884;28;20055;-71
2022/11/07 02:46:00;;;;;;;19.58;3.60;;;;;;;;;;5068305;28;20051;-73
2022/11/07 02:48:29;;;;;;;18.55;2.78;;;;;;;;;;5080859;28;20060;-72
2022/11/07 02:50:56;;;;;;;23.05;3.05;;;;;;;;;;5066782;28;20043;-72
2022/11/07 02:53:23;;;;;;;21.65;4.03;;;;;;;;;;5080036;28;20550;-74
2022/11/07 02:55:51;;;;;;;23.38;2.92;;;;;;;;;;5066691;28;20056;-71
2022/11/07 02:58:18;;;;;;;15.38;3.00;;;;;;;;;;5086609;28;20629;-71
2022/11/07 03:00:47;;;;;;;16.63;3.20;;;;;;;;;;5068428;28;20055;-71
2022/11/07 03:03:14;;;;;;;15.95;2.97;;;;;;;;;;5072029;28;20060;-72
2022/11/07 03:05:41;;;;;;;69.50;5.18;;;;;;;;;;5058214;28;20478;-73
2022/11/07 03:08:08;;;;;;;55.65;4.05;;;;;;;;;;5084218;28;20052;-74
2022/11/07 03:10:36;;;;;;;23.67;4.15;;;;;;;;;;5059430;28;20044;-72
2022/11/07 03:13:03;;;;;;;18.35;3.95;;;;;;;;;;5079023;28;20051;-72
2022/11/07 03:15:30;;;;;;;26.45;4.75;;;;;;;;;;5082167;28;20048;-72
2022/11/07 03:18:00;;;;;;;24.55;5.68;;;;;;;;;;5077525;28;20483;-72
2022/11/07 03:20:27;;;;;;;29.15;5.30;;;;;;;;;;5081938;28;20052;-72
2022/11/07 03:22:54;;;;;;;18.67;3.53;;;;;;;;;;5061268;28;20479;-73
2022/11/07 03:25:22;;;;;;;29.38;4.57;;;;;;;;;;5062498;28;20060;-72
2022/11/07 03:27:49;;;;;;;25.42;5.45;;;;;;;;;;5080217;28;20410;-72
2022/11/07 03:30:16;;;;;;;25.20;5.93;;;;;;;;;;5080579;28;20052;-73
2022/11/07 03:32:44;;;;;;;24.42;5.32;;;;;;;;;;5058619;28;20066;-72
2022/11/07 03:35:12;;;;;;;29.05;5.68;;;;;;;;;;5060511;28;20060;-72
2022/11/07 03:37:40;;;;;;;26.50;5.30;;;;;;;;;;5062972;28;20131;-72
2022/11/07 03:40:08;;;;;;;20.23;4.55;;;;;;;;;;5060997;28;20049;-72
2022/11/07 03:42:38;;;;;;;20.48;4.43;;;;;;;;;;5067754;28;20040;-71
2022/11/07 03:45:06;;;;;;;36.30;6.40;;;;;;;;;;5085608;28;20083;-73
2022/11/07 03:47:34;;;;;;;29.30;5.15;;;;;;;;;;5066916;28;20056;-72
2022/11/07 03:50:01;;;;;;;23.77;4.47;;;;;;;;;;5064225;28;20052;-72
2022/11/07 03:52:30;;;;;;;24.65;4.03;;;;;;;;;;5083645;28;20173;-72
2022/11/07 03:54:57;;;;;;;46.92;4.43;;;;;;;;;;5065857;28;20418;-72
2022/11/07 03:57:24;;;;;;;24.30;3.78;;;;;;;;;;5079950;28;20039;-72
2022/11/07 03:59:51;;;;;;;33.00;3.60;;;;;;;;;;5079022;28;20055;-73
2022/11/07 04:02:19;;;;;;;25.60;3.78;;;;;;;;;;5064676;28;20162;-72
2022/11/07 04:04:46;;;;;;;24.05;3.47;;;;;;;;;;5079738;28;20569;-72
2022/11/07 04:07:14;;;;;;;20.35;3.47;;;;;;;;;;5060618;28;20391;-73
2022/11/07 04:09:42;;;;;;;22.17;3.35;;;;;;;;;;5081876;28;20052;-73
2022/11/07 04:17:40;;;;;;;30.58;4.63;;;;;;;;;;5064541;28;20047;-71
2022/11/07 04:20:08;;;;;;;26.50;4.82;;;;;;;;;;5083200;28;20075;-72
2022/11/07 04:22:35;;;;;;;25.85;4.88;;;;;;;;;;5067654;28;20055;-72
2022/11/07 04:25:04;;;;;;;31.25;6.03;;;;;;;;;;5067756;28;20060;-73
2022/11/07 04:27:43;;;;;;;28.95;5.38;;;;;;;;;;5082825;28;20051;-72
2022/11/07 04:30:22;;;;;;;34.17;6.93;;;;;;;;;;5082667;28;20054;-73
2022/11/07 04:32:51;;;;;;;29.40;6.30;;;;;;;;;;5063543;28;20130;-73
2022/11/07 04:35:18;;;;;;;19.08;5.13;;;;;;;;;;5066782;28;20059;-73
2022/11/07 04:37:46;;;;;;;29.30;5.82;;;;;;;;;;5065252;28;20105;-72
2022/11/07 04:40:15;;;;;;;27.13;4.95;;;;;;;;;;5062947;28;20062;-72
2022/11/07 04:42:43;;;;;;;28.63;3.85;;;;;;;;;;5058254;28;20048;-72
2022/11/07 04:45:10;;;;;;;23.92;4.75;;;;;;;;;;5081664;28;20059;-71
2022/11/07 04:47:38;;;;;;;24.80;5.15;;;;;;;;;;5084330;28;20058;-73
2022/11/07 04:50:06;;;;;;;28.23;5.85;;;;;;;;;;5068040;28;20048;-72
2022/11/07 04:52:33;;;;;;;29.40;6.80;;;;;;;;;;5066120;28;20196;-72
2022/11/07 04:55:00;;;;;;;30.20;7.68;;;;;;;;;;5066703;28;20059;-72
2022/11/07 04:57:29;;;;;;;24.45;6.05;;;;;;;;;;5065985;28;20052;-71
2022/11/07 04:59:56;;;;;;;32.08;7.47;;;;;;;;;;5083821;28;20051;-72
2022/11/07 05:02:24;;;;;;;25.92;7.00;;;;;;;;;;5064443;28;20052;-72
2022/11/07 05:04:52;;;;;;;31.77;6.70;;;;;;;;;;5066761;28;20482;-72
2022/11/07 05:07:19;;;;;;;24.67;6.13;;;;;;;;;;5066043;28;20146;-72
2022/11/07 05:09:47;;;;;;;22.38;5.45;;;;;;;;;;5070111;28;20375;-72
2022/11/07 05:12:14;;;;;;;25.40;5.63;;;;;;;;;;5069004;28;20059;-71
2022/11/07 05:14:42;;;;;;;29.02;5.90;;;;;;;;;;5082842;28;20570;-72
2022/11/07 05:17:11;;;;;;;27.63;5.25;;;;;;;;;;5068415;28;20044;-72
2022/11/07 05:19:38;;;;;;;33.40;6.00;;;;;;;;;;5080228;28;20060;-72
2022/11/07 05:24:50;;;;;;;26.02;5.30;;;;;;;;;;5081431;28;20070;-71
2022/11/07 05:27:18;;;;;;;30.00;5.45;;;;;;;;;;5061478;28;20055;-73
2022/11/07 05:29:47;;;;;;;26.35;5.45;;;;;;;;;;5061187;28;20101;-72
2022/11/07 05:32:14;;;;;;;32.53;5.85;;;;;;;;;;5080225;28;20056;-71
2022/11/07 05:34:42;;;;;;;49.33;6.07;;;;;;;;;;5068652;28;20513;-73
2022/11/07 05:37:09;;;;;;;29.95;5.60;;;;;;;;;;5067560;28;20048;-75
2022/11/07 05:39:36;;;;;;;29.33;6.15;;;;;;;;;;5066098;28;20127;-71
2022/11/07 05:42:04;;;;;;;28.52;6.63;;;;;;;;;;5068360;28;20052;-71
2022/11/07 05:44:31;;;;;;;26.60;4.20;;;;;;;;;;5080049;28;20063;-71
2022/11/07 05:47:00;;;;;;;19.77;4.30;;;;;;;;;;5085718;28;20517;-71
2022/11/07 05:49:28;;;;;;;22.92;5.43;;;;;;;;;;5079503;28;20109;-71
2022/11/07 05:51:55;;;;;;;20.60;3.67;;;;;;;;;;5069175;28;20044;-72
2022/11/07 05:54:23;;;;;;;14.18;3.78;;;;;;;;;;5064829;28;20066;-73
2022/11/07 05:56:50;;;;;;;14.10;2.92;;;;;;;;;;5067929;28;20097;-72
2022/11/07 05:59:18;;;;;;;20.27;3.42;;;;;;;;;;5087481;28;20438;-72
2022/11/07 06:01:46;;;;;;;12.77;2.53;;;;;;;;;;5067289;28;20087;-72
2022/11/07 06:04:14;;;;;;;15.32;3.20;;;;;;;;;;5065853;28;20418;-72
2022/11/07 06:06:41;;;;;;;14.20;2.80;;;;;;;;;;5070100;28;20052;-72
2022/11/07 06:09:09;;;;;;;13.25;3.03;;;;;;;;;;5067256;28;20474;-72
2022/11/07 06:11:36;;;;;;;18.92;3.33;;;;;;;;;;5064686;28;20056;-72
2022/11/07 06:14:03;;;;;;;19.15;3.45;;;;;;;;;;5063735;28;20048;-71
2022/11/07 06:16:30;;;;;;;17.50;4.22;;;;;;;;;;5083716;28;20052;-71
2022/11/07 06:18:58;;;;;;;19.88;4.07;;;;;;;;;;5063568;28;20056;-72
2022/11/07 06:21:26;;;;;;;15.68;3.90;;;;;;;;;;5067448;28;20052;-71
2022/11/07 06:23:53;;;;;;;15.88;4.32;;;;;;;;;;5086733;28;20344;-72
2022/11/07 06:26:21;;;;;;;19.73;4.40;;;;;;;;;;5065461;28;20047;-71
2022/11/07 06:28:48;;;;;;;18.27;4.35;;;;;;;;;;5086990;28;20044;-71
2022/11/07 06:31:15;;;;;;;17.05;4.13;;;;;;;;;;5083997;28;20146;-71
2022/11/07 06:33:42;;;;;;;21.05;4.43;;;;;;;;;;5078540;28;20106;-71
2022/11/07 06:36:11;;;;;;;13.80;3.33;;;;;;;;;;5067483;28;20067;-72
2022/11/07 06:38:40;;;;;;;14.57;3.50;;;;;;;;;;5067643;28;20063;-72
2022/11/07 06:41:09;;;;;;;14.27;3.70;;;;;;;;;;5082607;28;20125;-73
2022/11/07 06:43:36;;;;;;;19.63;5.15;;;;;;;;;;5079683;28;20044;-71
2022/11/07 06:46:04;;;;;;;22.70;5.75;;;;;;;;;;5084632;28;20059;-72
2022/11/07 06:48:32;;;;;;;23.45;5.57;;;;;;;;;;5085544;28;20052;-71
2022/11/07 06:50:59;;;;;;;14.70;6.10;;;;;;;;;;5070460;28;20059;-71
2022/11/07 06:53:27;;;;;;;26.77;6.80;;;;;;;;;;5086075;28;20048;-72
2022/11/07 06:55:56;;;;;;;18.33;6.40;;;;;;;;;;5070548;28;20934;-71
2022/11/07 06:58:23;;;;;;;18.70;6.97;;;;;;;;;;5085735;28;20054;-71
2022/11/07 07:00:50;;;;;;;25.30;6.95;;;;;;;;;;5084156;28;20051;-72
2022/11/07 07:03:17;;;;;;;25.60;6.88;;;;;;;;;;5066069;28;20474;-71
2022/11/07 07:05:45;;;;;;;18.02;6.35;;;;;;;;;;5077710;28;20051;-72
2022/11/07 07:08:13;;;;;;;20.45;5.78;;;;;;;;;;5082267;28;20407;-72
2022/11/07 07:10:42;;;;;;;15.77;5.22;;;;;;;;;;5077578;28;20473;-72
2022/11/07 07:13:11;;;;;;;16.10;6.07;;;;;;;;;;5084452;28;20054;-72
2022/11/07 07:15:39;;;;;;;19.30;5.25;;;;;;;;;;5064690;28;20048;-71
2022/11/07 07:18:06;;;;;;;18.17;6.38;;;;;;;;;;5063958;28;20450;-72
2022/11/07 07:20:33;;;;;;;17.88;5.70;;;;;;;;;;5083939;28;21215;-72
2022/11/07 07:23:01;;;;;;;19.13;6.65;;;;;;;;;;5065716;28;20048;-73
2022/11/07 07:25:28;;;;;;;28.45;7.53;;;;;;;;;;5064478;28;20056;-71
2022/11/07 07:27:55;;;;;;;20.75;6.97;;;;;;;;;;5066116;28;20090;-73
2022/11/07 07:30:24;;;;;;;25.15;6.38;;;;;;;;;;5059677;28;20060;-72
2022/11/07 07:32:51;;;;;;;26.55;7.28;;;;;;;;;;5061910;28;20051;-71
2022/11/07 07:35:18;;;;;;;17.00;5.43;;;;;;;;;;5066626;28;20059;-72
2022/11/07 07:37:49;;;;;;;28.83;6.47;;;;;;;;;;5080216;28;20043;-71
2022/11/07 07:40:16;;;;;;;17.52;5.22;;;;;;;;;;5063023;28;20048;-71
2022/11/07 07:42:44;;;;;;;28.15;6.25;;;;;;;;;;5060934;28;20052;-71
2022/11/07 07:45:11;;;;;;;19.98;5.68;;;;;;;;;;5080247;28;20495;-72
2022/11/07 07:47:40;;;;;;;21.90;6.45;;;;;;;;;;5058073;28;20056;-71
2022/11/07 07:50:09;;;;;;;22.50;6.22;;;;;;;;;;5084578;28;20044;-70
2022/11/07 07:52:36;;;;;;;26.67;6.32;;;;;;;;;;5079058;28;20052;-70
2022/11/07 07:55:04;;;;;;;27.02;5.95;;;;;;;;;;5066603;28;20059;-71
2022/11/07 07:57:31;;;;;;;18.25;5.57;;;;;;;;;;5076824;28;20052;-71
2022/11/07 07:59:58;;;;;;;20.42;6.07;;;;;;;;;;5081784;28;20491;-71
2022/11/07 08:02:25;;;;;;;25.55;7.47;;;;;;;;;;5074784;28;20040;-71
2022/11/07 08:04:54;;;;;;;22.13;6.03;;;;;;;;;;5082858;28;20052;-72
2022/11/07 08:07:21;;;;;;;17.95;5.93;;;;;;;;;;5054621;28;20048;-72
2022/11/07 08:09:48;;;;;;;21.33;4.88;;;;;;;;;;5059921;28;20052;-72
2022/11/07 08:12:16;;;;;;;22.27;5.70;;;;;;;;;;5062863;28;20051;-73
2022/11/07 08:14:43;;;;;;;19.80;5.55;;;;;;;;;;5060471;28;20040;-73
2022/11/07 08:17:10;;;;;;;20.95;5.20;;;;;;;;;;5065691;28;20131;-73
2022/11/07 08:19:37;;;;;;;22.35;6.05;;;;;;;;;;5064497;28;20051;-71
2022/11/07 08:22:06;;;;;;;22.45;6.32;;;;;;;;;;5064539;28;20400;-72
2022/11/07 08:24:33;;;;;;;22.83;7.03;;;;;;;;;;5064924;28;20040;-72
2022/11/07 08:27:00;;;;;;;27.95;7.45;;;;;;;;;;5063967;28;20063;-72
2022/11/07 08:29:28;;;;;;;27.25;8.02;;;;;;;;;;5082123;28;20048;-72
2022/11/07 08:31:55;;;;;;;29.67;8.20;;;;;;;;;;5080993;28;20414;-72
2022/11/07 08:34:23;;;;;;;27.63;7.55;;;;;;;;;;5077145;28;20140;-72
2022/11/07 08:36:51;;;;;;;25.13;6.97;;;;;;;;;;5063611;28;20132;-72
2022/11/07 08:39:19;;;;;;;35.13;7.63;;;;;;;;;;5060388;28;20060;-73
2022/11/07 08:41:47;;;;;;;28.73;7.68;;;;;;;;;;5065285;28;20052;-71
2022/11/07 08:44:14;;;;;;;43.28;9.30;;;;;;;;;;5081551;28;20044;-71
2022/11/07 08:46:41;;;;;;;29.30;8.23;;;;;;;;;;5065445;28;20149;-72
2022/11/07 08:49:08;;;;;;;29.48;6.53;;;;;;;;;;5063065;28;20048;-72
2022/11/07 08:51:36;;;;;;;28.05;7.88;;;;;;;;;;5062716;28;20087;-72
2022/11/07 08:54:03;;;;;;;36.80;7.93;;;;;;;;;;5078661;28;20044;-72
2022/11/07 08:56:33;;;;;;;35.90;8.00;;;;;;;;;;5080267;28;20052;-72
2022/11/07 08:59:00;;;;;;;29.20;8.27;;;;;;;;;;5085011;28;20406;-71
2022/11/07 09:01:28;;;;;;;35.58;8.68;;;;;;;;;;5083559;28;20494;-71
2022/11/07 09:03:55;;;;;;;40.97;9.15;;;;;;;;;;5082693;28;20048;-72
2022/11/07 09:06:22;;;;;;;39.20;8.00;;;;;;;;;;5082446;28;20121;-71
2022/11/07 09:08:49;;;;;;;34.03;8.88;;;;;;;;;;5079627;28;20402;-71
2022/11/07 09:11:17;;;;;;;41.08;9.95;;;;;;;;;;5078454;28;20105;-72
2022/11/07 09:13:46;;;;;;;28.42;8.95;;;;;;;;;;5071763;28;20834;-73
2022/11/07 09:16:16;;;;;;;30.88;9.88;;;;;;;;;;5066179;28;20121;-72
2022/11/07 09:18:43;;;;;;;28.60;8.25;;;;;;;;;;5066598;28;20056;-72
2022/11/07 09:21:11;;;;;;;31.02;8.68;;;;;;;;;;5066296;28;20048;-72
2022/11/07 09:23:38;;;;;;;30.02;8.75;;;;;;;;;;5079994;28;20032;-72
2022/11/07 09:26:06;;;;;;;30.58;8.02;;;;;;;;;;5082001;28;20051;-72
2022/11/07 09:28:33;;;;;;;33.88;9.07;;;;;;;;;;5084526;28;20060;-72
2022/11/07 09:31:03;;;;;;;31.17;8.20;;;;;;;;;;5060956;28;20056;-71
2022/11/07 09:33:30;;;;;;;28.65;8.23;;;;;;;;;;5061563;28;20047;-73
2022/11/07 09:35:59;;;;;;;32.05;7.78;;;;;;;;;;5078686;28;20562;-74
2022/11/07 09:38:27;;;;;;;30.95;7.72;;;;;;;;;;5060319;28;20098;-71
2022/11/07 09:40:59;;;;;;;27.08;7.22;;;;;;;;;;5065152;28;20059;-72
2022/11/07 09:43:38;;;;;;;22.03;6.60;;;;;;;;;;5081760;28;20446;-73
2022/11/07 09:46:13;;;;;;;30.40;7.35;;;;;;;;;;5064439;28;20298;-72
2022/11/07 09:48:44;;;;;;;25.98;6.90;;;;;;;;;;5079783;28;20047;-73
2022/11/07 09:51:13;;;;;;;29.42;6.75;;;;;;;;;;5060902;28;20063;-72
2022/11/07 09:53:43;;;;;;;24.42;6.28;;;;;;;;;;5063086;28;20399;-73
2022/11/07 09:56:13;;;;;;;21.85;5.63;;;;;;;;;;5065555;28;20505;-72
2022/11/07 09:58:42;;;;;;;28.50;6.40;;;;;;;;;;5079466;28;20526;-71
2022/11/07 10:01:14;;;;;;;26.23;6.30;;;;;;;;;;5062917;28;20064;-72
2022/11/07 10:03:42;;;;;;;25.30;6.22;;;;;;;;;;5061985;28;20044;-72
2022/11/07 10:06:14;;;;;;;22.52;5.50;;;;;;;;;;5081872;28;20044;-73
2022/11/07 10:08:44;;;;;;;22.90;5.22;;;;;;;;;;5083559;28;20043;-73
2022/11/07 10:11:14;;;;;;;32.38;5.28;;;;;;;;;;5080904;28;20036;-71
2022/11/07 10:13:56;;;;;;;25.42;5.55;;;;;;;;;;5063132;28;20059;-74
2022/11/07 10:16:27;;;;;;;25.65;5.70;;;;;;;;;;5060404;28;20426;-73
2022/11/07 10:19:00;;;;;;;23.88;5.32;;;;;;;;;;5083830;28;20044;-72
2022/11/07 10:21:31;;;;;;;18.77;5.60;;;;;;;;;;5082347;28;20149;-72
2022/11/07 10:24:03;;;;;;;17.60;4.22;;;;;;;;;;5064678;28;20056;-72
2022/11/07 10:26:31;;;;;;;22.37;4.53;;;;;;;;;;5066285;28;20050;-72
2022/11/07 10:29:01;;;;;;;25.67;4.97;;;;;;;;;;5063952;28;20298;-73
2022/11/07 10:31:33;;;;;;;23.60;4.57;;;;;;;;;;5084939;28;20078;-72
2022/11/07 10:34:02;;;;;;;17.85;3.88;;;;;;;;;;5077591;28;20052;-74
2022/11/07 10:36:30;;;;;;;22.40;4.82;;;;;;;;;;5068775;28;20594;-71
2022/11/07 10:38:57;;;;;;;19.52;4.82;;;;;;;;;;5062719;28;20048;-73
2022/11/07 10:41:25;;;;;;;20.52;4.90;;;;;;;;;;5056603;28;20051;-72
2022/11/07 10:43:54;;;;;;;28.45;5.97;;;;;;;;;;5060305;28;20043;-72
2022/11/07 10:46:22;;;;;;;20.13;4.07;;;;;;;;;;5081620;28;20048;-72
2022/11/07 10:48:52;;;;;;;18.75;4.00;;;;;;;;;;5083065;28;20490;-72
2022/11/07 10:51:19;;;;;;;23.05;4.32;;;;;;;;;;5083911;28;20268;-72
2022/11/07 10:53:47;;;;;;;20.67;4.38;;;;;;;;;;5082877;28;20044;-72
2022/11/07 10:56:14;;;;;;;20.83;3.97;;;;;;;;;;5085300;28;20047;-73
2022/11/07 10:58:44;;;;;;;17.92;3.53;;;;;;;;;;5056191;28;20052;-71
2022/11/07 11:01:12;;;;;;;22.02;4.45;;;;;;;;;;5056211;28;20458;-71
2022/11/07 11:03:41;;;;;;;20.50;3.88;;;;;;;;;;5079416;28;20076;-71
2022/11/07 11:06:20;;;;;;;19.38;4.07;;;;;;;;;;5084770;28;20051;-72
2022/11/07 11:08:48;;;;;;;19.38;3.97;;;;;;;;;;5083366;28;20040;-71
2022/11/07 11:11:16;;;;;;;21.77;3.60;;;;;;;;;;5084757;28;20075;-72
2022/11/07 11:13:43;;;;;;;20.00;4.32;;;;;;;;;;5084959;28;20036;-71
2022/11/07 11:16:20;;;;;;;18.25;4.05;;;;;;;;;;5066036;28;20077;-72
2022/11/07 11:18:49;;;;;;;20.27;3.92;;;;;;;;;;5063533;28;20490;-72
2022/11/07 11:21:18;;;;;;;20.10;3.97;;;;;;;;;;5065733;28;20071;-72
2022/11/07 11:23:46;;;;;;;21.27;3.28;;;;;;;;;;5062521;28;20047;-72
2022/11/07 11:26:16;;;;;;;29.10;4.93;;;;;;;;;;5082527;28;20155;-73
2022/11/07 11:28:46;;;;;;;19.83;3.78;;;;;;;;;;5060015;28;20056;-72
2022/11/07 11:31:15;;;;;;;16.42;3.97;;;;;;;;;;5078627;28;20147;-71
2022/11/07 11:33:45;;;;;;;25.20;4.72;;;;;;;;;;5079517;28;20040;-72
2022/11/07 11:36:14;;;;;;;24.30;4.60;;;;;;;;;;5062302;28;20056;-72
2022/11/07 11:38:51;;;;;;;19.33;4.72;;;;;;;;;;5080636;28;20051;-71
2022/11/07 11:41:21;;;;;;;25.25;4.53;;;;;;;;;;5060739;28;20047;-71
2022/11/07 11:43:50;;;;;;;27.58;5.80;;;;;;;;;;5079595;28;20046;-70
2022/11/07 11:46:22;;;;;;;23.02;5.68;;;;;;;;;;5080675;28;20052;-70
2022/11/07 11:48:51;;;;;;;28.52;6.32;;;;;;;;;;5081574;28;20086;-70
2022/11/07 11:51:21;;;;;;;23.40;5.80;;;;;;;;;;5074675;28;20052;-71
2022/11/07 11:53:50;;;;;;;29.05;5.80;;;;;;;;;;5082746;28;20044;-71
2022/11/07 11:56:25;;;;;;;25.83;6.45;;;;;;;;;;5079044;28;20063;-71
2022/11/07 11:59:00;;;;;;;22.92;5.95;;;;;;;;;;5075170;28;20048;-71
2022/11/07 12:01:34;;;;;;;28.33;6.00;;;;;;;;;;5079042;28;20060;-71
2022/11/07 12:04:05;;;;;;;22.52;5.82;;;;;;;;;;5055292;28;20051;-71
2022/11/07 12:06:33;;;;;;;22.02;5.30;;;;;;;;;;5071866;28;20139;-71
2022/11/07 12:09:12;;;;;;;20.02;5.43;;;;;;;;;;5078197;28;20043;-71
2022/11/07 12:11:44;;;;;;;23.15;5.68;;;;;;;;;;5071498;28;20048;-71
2022/11/07 12:14:29;;;;;;;26.80;4.45;;;;;;;;;;5080867;28;20044;-71
2022/11/07 12:16:59;;;;;;;17.83;3.42;;;;;;;;;;5079320;28;20053;-71
2022/11/07 12:19:29;;;;;;;16.58;3.55;;;;;;;;;;5081822;28;20055;-72
2022/11/07 12:22:00;;;;;;;16.08;3.33;;;;;;;;;;5083189;28;20040;-71
2022/11/07 12:24:33;;;;;;;17.52;3.90;;;;;;;;;;5076507;28;20036;-71
2022/11/07 12:27:06;;;;;;;20.47;3.93;;;;;;;;;;5059568;28;20070;-71
2022/11/07 12:29:41;;;;;;;16.48;3.58;;;;;;;;;;5074797;28;20279;-71
2022/11/07 12:32:13;;;;;;;18.45;3.92;;;;;;;;;;5077221;28;20048;-71
2022/11/07 12:34:46;;;;;;;16.42;4.00;;;;;;;;;;5055884;28;20044;-70
2022/11/07 12:37:21;;;;;;;28.60;5.22;;;;;;;;;;5075497;28;20067;-71
2022/11/07 12:39:57;;;;;;;14.77;3.20;;;;;;;;;;5061124;28;20044;-72
2022/11/07 12:42:32;;;;;;;13.95;3.20;;;;;;;;;;5057515;28;20064;-71
2022/11/07 12:45:03;;;;;;;15.05;3.15;;;;;;;;;;5079839;28;20455;-69
2022/11/07 12:47:39;;;;;;;19.58;4.05;;;;;;;;;;5074833;28;20786;-69
2022/11/07 12:50:13;;;;;;;23.15;4.15;;;;;;;;;;5071709;28;20059;-70
2022/11/07 12:52:46;;;;;;;13.85;3.55;;;;;;;;;;5058913;28;20055;-70
2022/11/07 12:55:18;;;;;;;18.23;3.92;;;;;;;;;;5075783;28;21207;-70
2022/11/07 12:57:46;;;;;;;21.95;3.75;;;;;;;;;;5082193;28;20079;-69
2022/11/07 13:00:18;;;;;;;18.90;3.92;;;;;;;;;;5063430;28;20052;-69
2022/11/07 13:02:53;;;;;;;17.70;4.20;;;;;;;;;;5071058;28;20056;-73
2022/11/07 13:05:30;;;;;;;22.55;4.20;;;;;;;;;;5082365;28;20058;-73
2022/11/07 13:08:00;;;;;;;14.23;3.63;;;;;;;;;;5062741;28;20557;-71
2022/11/07 13:10:32;;;;;;;21.10;4.28;;;;;;;;;;5080229;28;20051;-70
2022/11/07 13:13:01;;;;;;;18.75;4.38;;;;;;;;;;5079521;28;20044;-71
2022/11/07 13:15:29;;;;;;;16.77;3.25;;;;;;;;;;5082376;28;20050;-71
2022/11/07 13:17:57;;;;;;;15.25;3.35;;;;;;;;;;5081086;28;20040;-71
2022/11/07 13:20:29;;;;;;;18.23;3.60;;;;;;;;;;5078042;28;20537;-71
2022/11/07 13:22:56;;;;;;;13.95;3.20;;;;;;;;;;5081963;28;20079;-73
2022/11/07 13:25:25;;;;;;;17.35;3.65;;;;;;;;;;5070078;28;20051;-70
2022/11/07 13:28:07;;;;;;;17.48;4.03;;;;;;;;;;5080298;28;20044;-71
2022/11/07 13:30:36;;;;;;;16.35;3.60;;;;;;;;;;5068637;28;20044;-71
2022/11/07 13:33:04;;;;;;;15.10;3.88;;;;;;;;;;5066694;28;20066;-71
2022/11/07 13:35:32;;;;;;;21.52;4.20;;;;;;;;;;5055638;28;20125;-72
2022/11/07 13:38:01;;;;;;;26.92;3.60;;;;;;;;;;5080843;28;20044;-72
2022/11/07 13:40:30;;;;;;;20.52;4.47;;;;;;;;;;5084017;28;20406;-72
2022/11/07 13:42:58;;;;;;;19.70;3.88;;;;;;;;;;5066862;28;20083;-73
2022/11/07 13:45:29;;;;;;;18.38;4.22;;;;;;;;;;5084187;28;20075;-71
2022/11/07 13:47:58;;;;;;;18.85;3.80;;;;;;;;;;5082789;28;20045;-71
2022/11/07 13:50:31;;;;;;;24.13;5.03;;;;;;;;;;5076168;28;20675;-71
2022/11/07 13:53:00;;;;;;;17.20;3.70;;;;;;;;;;5088156;28;20120;-70
2022/11/07 13:55:29;;;;;;;23.17;4.18;;;;;;;;;;5088101;28;20138;-71
2022/11/07 13:58:01;;;;;;;26.67;4.40;;;;;;;;;;5084263;28;20055;-72
2022/11/07 14:00:30;;;;;;;17.67;4.70;;;;;;;;;;5085050;28;20048;-71
2022/11/07 14:02:58;;;;;;;18.10;3.72;;;;;;;;;;5081746;28;20059;-72
2022/11/07 14:05:26;;;;;;;30.05;4.57;;;;;;;;;;5082951;28;20055;-71
2022/11/07 14:07:56;;;;;;;19.05;3.97;;;;;;;;;;5069387;28;20056;-72
2022/11/07 14:10:26;;;;;;;18.65;4.43;;;;;;;;;;5065942;28;20052;-71
2022/11/07 14:12:55;;;;;;;17.10;3.83;;;;;;;;;;5086709;28;20056;-71
2022/11/07 14:15:22;;;;;;;21.75;4.38;;;;;;;;;;5082773;28;20044;-71
2022/11/07 14:17:51;;;;;;;20.55;4.00;;;;;;;;;;5082817;28;20044;-71
2022/11/07 14:20:19;;;;;;;20.67;4.63;;;;;;;;;;5082394;28;20134;-72
2022/11/07 14:22:50;;;;;;;24.15;4.75;;;;;;;;;;5083732;28;22769;-71
2022/11/07 14:25:28;;;;;;;21.70;4.90;;;;;;;;;;5080480;28;20052;-70
2022/11/07 14:27:55;;;;;;;21.90;5.00;;;;;;;;;;5082152;28;20088;-72
2022/11/07 14:30:23;;;;;;;20.73;4.55;;;;;;;;;;5082065;28;20051;-72
2022/11/07 14:32:53;;;;;;;24.90;4.53;;;;;;;;;;5064127;28;20056;-71
2022/11/07 14:35:22;;;;;;;24.20;4.35;;;;;;;;;;5083901;28;20139;-72
2022/11/07 14:37:49;;;;;;;25.38;4.13;;;;;;;;;;5086556;28;20421;-71
2022/11/07 14:40:17;;;;;;;25.67;4.50;;;;;;;;;;5086391;28;20138;-71
2022/11/07 14:42:45;;;;;;;21.50;3.88;;;;;;;;;;5081501;28;20051;-72
2022/11/07 14:45:16;;;;;;;23.75;4.53;;;;;;;;;;5082986;28;20040;-74
2022/11/07 14:47:44;;;;;;;21.90;4.20;;;;;;;;;;5081918;28;20045;-71
2022/11/07 14:50:16;;;;;;;25.52;4.80;;;;;;;;;;5082842;28;20054;-71